Time;durP1;ratioP1;P1;durP2;ratioP2;P2;SDS_P1;SDS_P2;PMS_P1;PMS_P2;Temp;Humidity;BMP_temperature;BMP_pressure;BME280_temperature;BME280_humidity;BME280_pressure;Samples;Min_cycle;Max_cycle;Signal;HPM_P1;HPM_P2
2023/06/18 00:06:03;;;;;;;13.10;11.90;;;15.00;83.80;;;;;;4897831;29;20189;-89
2023/06/18 00:08:38;;;;;;;12.13;11.02;;;15.00;84.10;;;;;;4898998;29;20281;-88
2023/06/18 00:11:03;;;;;;;16.10;11.88;;;14.90;84.10;;;;;;4914217;29;20711;-89
2023/06/18 00:14:01;;;;;;;22.27;12.25;;;14.80;84.10;;;;;;4915908;29;20200;-89
2023/06/18 00:16:26;;;;;;;12.88;11.60;;;14.90;84.10;;;;;;4962886;28;20195;-89
2023/06/18 00:19:04;;;;;;;12.98;11.70;;;14.80;84.10;;;;;;4975581;28;20545;-89
2023/06/18 00:21:29;;;;;;;12.98;11.27;;;14.80;84.20;;;;;;4975009;28;20184;-89
2023/06/18 00:23:55;;;;;;;13.50;11.70;;;14.80;84.20;;;;;;4957458;28;20297;-89
2023/06/18 00:26:22;;;;;;;11.80;10.80;;;14.80;84.10;;;;;;4957627;28;20194;-89
2023/06/18 00:28:48;;;;;;;13.50;11.65;;;14.80;84.10;;;;;;4957572;28;20649;-89
2023/06/18 00:31:13;;;;;;;14.50;11.38;;;14.70;84.10;;;;;;4958714;28;20177;-89
2023/06/18 00:33:40;;;;;;;13.52;12.20;;;14.70;84.10;;;;;;4957929;28;20313;-89
2023/06/18 00:36:07;;;;;;;12.63;11.32;;;14.70;84.00;;;;;;4975047;28;20212;-88
2023/06/18 00:38:34;;;;;;;16.27;11.57;;;14.70;84.00;;;;;;4957541;28;20246;-89
2023/06/18 00:40:59;;;;;;;14.63;12.88;;;14.60;83.90;;;;;;4974965;28;20588;-89
2023/06/18 00:43:28;;;;;;;18.00;12.35;;;14.60;84.20;;;;;;4957410;28;20213;-89
2023/06/18 00:45:59;;;;;;;13.82;12.63;;;14.60;84.30;;;;;;4957362;28;20625;-89
2023/06/18 00:48:25;;;;;;;16.15;13.05;;;14.60;84.30;;;;;;4974771;28;20171;-89
2023/06/18 00:50:53;;;;;;;13.88;12.63;;;14.50;84.30;;;;;;4974693;28;20210;-89
2023/06/18 00:53:20;;;;;;;14.70;13.18;;;14.50;84.40;;;;;;4974983;28;20194;-89
2023/06/18 00:55:47;;;;;;;15.27;13.48;;;14.50;84.50;;;;;;4957392;28;20206;-89
2023/06/18 00:58:13;;;;;;;15.98;14.43;;;14.40;84.70;;;;;;4974380;28;20225;-89
2023/06/18 01:00:40;;;;;;;19.73;14.73;;;14.40;85.00;;;;;;4974343;28;20194;-89
2023/06/18 01:03:16;;;;;;;19.42;15.25;;;14.40;85.30;;;;;;4974286;28;20226;-89
2023/06/18 01:05:52;;;;;;;21.13;14.60;;;14.40;85.70;;;;;;4957080;28;20557;-89
2023/06/18 01:08:23;;;;;;;14.77;13.32;;;14.40;85.90;;;;;;4956379;28;20210;-89
2023/06/18 01:10:57;;;;;;;14.07;12.88;;;14.30;86.40;;;;;;4974351;28;20147;-89
2023/06/18 01:13:25;;;;;;;12.68;11.32;;;14.30;87.00;;;;;;4957074;28;20317;-89
2023/06/18 01:15:50;;;;;;;12.52;11.18;;;14.30;87.10;;;;;;4957351;28;20190;-89
2023/06/18 01:18:16;;;;;;;14.13;11.60;;;14.30;87.10;;;;;;4974291;28;20179;-89
2023/06/18 01:20:44;;;;;;;11.40;10.50;;;14.30;86.90;;;;;;4957345;28;20257;-89
2023/06/18 01:23:21;;;;;;;11.25;10.25;;;14.30;86.80;;;;;;4957323;28;20221;-89
2023/06/18 01:25:47;;;;;;;14.20;12.80;;;14.30;86.60;;;;;;4956959;28;20173;-89
2023/06/18 01:28:15;;;;;;;14.43;12.95;;;14.20;86.40;;;;;;4956922;28;20261;-89
2023/06/18 01:30:40;;;;;;;15.45;13.63;;;14.20;87.40;;;;;;4956668;28;20170;-89
2023/06/18 01:33:12;;;;;;;15.05;13.65;;;14.20;88.00;;;;;;4956800;28;20210;-89
2023/06/18 01:35:38;;;;;;;20.98;13.00;;;14.20;88.00;;;;;;4956804;28;20174;-89
2023/06/18 01:38:36;;;;;;;13.75;12.27;;;14.20;87.90;;;;;;4956752;28;20679;-89
2023/06/18 01:41:23;;;;;;;15.07;13.77;;;14.20;87.60;;;;;;4957681;28;20186;-89
2023/06/18 01:43:53;;;;;;;25.30;23.15;;;14.20;87.50;;;;;;4956766;28;20214;-89
2023/06/18 01:46:23;;;;;;;22.95;21.00;;;14.20;87.60;;;;;;4957577;28;20494;-89
2023/06/18 01:48:59;;;;;;;25.70;23.53;;;14.00;87.40;;;;;;4956773;28;20177;-88
2023/06/18 01:51:27;;;;;;;27.30;25.30;;;14.00;87.50;;;;;;4956736;28;20174;-89
2023/06/18 01:53:56;;;;;;;26.27;24.33;;;14.00;87.60;;;;;;4974480;28;20194;-88
2023/06/18 01:56:23;;;;;;;27.40;25.00;;;14.00;87.40;;;;;;4957235;28;20189;-89
2023/06/18 01:58:50;;;;;;;28.13;25.87;;;13.90;87.30;;;;;;4956928;28;20230;-89
2023/06/18 02:01:15;;;;;;;28.30;25.27;;;13.80;87.50;;;;;;4956648;28;20190;-89
2023/06/18 02:03:41;;;;;;;24.93;22.83;;;13.70;87.90;;;;;;4956405;28;20211;-88
2023/06/18 02:06:07;;;;;;;22.73;20.50;;;13.70;87.90;;;;;;4973893;28;20210;-88
2023/06/18 02:08:33;;;;;;;12.53;11.10;;;13.60;87.90;;;;;;4956816;28;20202;-89
2023/06/18 02:10:59;;;;;;;19.73;13.63;;;13.60;88.00;;;;;;4956514;28;20171;-89
2023/06/18 02:13:25;;;;;;;14.73;13.27;;;13.60;88.10;;;;;;4956400;28;20261;-89
2023/06/18 02:15:51;;;;;;;13.60;12.20;;;13.60;88.50;;;;;;4956559;28;20613;-89
2023/06/18 02:18:16;;;;;;;15.63;13.53;;;13.60;88.90;;;;;;4974508;28;20653;-89
2023/06/18 02:20:42;;;;;;;18.00;12.97;;;13.60;88.80;;;;;;4960483;28;20541;-89
2023/06/18 02:23:08;;;;;;;16.73;13.17;;;13.60;88.70;;;;;;4959484;28;20601;-88
2023/06/18 02:25:34;;;;;;;20.70;14.33;;;13.70;88.60;;;;;;4977372;28;20171;-88
2023/06/18 02:28:03;;;;;;;15.97;14.33;;;13.60;88.40;;;;;;4977372;28;20594;-87
2023/06/18 02:30:29;;;;;;;17.17;14.13;;;13.60;88.30;;;;;;4977571;28;20175;-88
2023/06/18 02:33:06;;;;;;;22.03;15.00;;;13.60;88.10;;;;;;4959915;28;20234;-88
2023/06/18 02:35:32;;;;;;;20.27;14.30;;;13.70;87.90;;;;;;4960254;28;20170;-88
2023/06/18 02:37:58;;;;;;;19.43;13.57;;;13.60;87.70;;;;;;4959923;28;20191;-88
2023/06/18 02:40:23;;;;;;;17.90;14.13;;;13.60;87.60;;;;;;4959908;28;20679;-88
2023/06/18 02:42:50;;;;;;;22.90;12.80;;;13.70;87.50;;;;;;4959644;28;20219;-88
2023/06/18 02:45:17;;;;;;;21.87;14.37;;;13.60;87.40;;;;;;4959849;28;20170;-88
2023/06/18 02:47:47;;;;;;;17.33;15.23;;;13.50;87.50;;;;;;4959528;28;20171;-88
2023/06/18 02:50:13;;;;;;;16.77;15.13;;;13.60;87.70;;;;;;4959462;28;20171;-89
2023/06/18 02:52:40;;;;;;;15.57;14.00;;;13.60;87.60;;;;;;4959441;28;20205;-89
2023/06/18 02:55:07;;;;;;;14.97;13.37;;;13.60;87.70;;;;;;4976575;28;20234;-89
2023/06/18 02:57:34;;;;;;;17.13;14.13;;;13.50;87.50;;;;;;4959292;28;20206;-89
2023/06/18 03:00:00;;;;;;;14.17;12.60;;;13.50;87.50;;;;;;4959504;28;20183;-89
2023/06/18 03:02:26;;;;;;;13.37;11.97;;;13.20;87.30;;;;;;4976590;28;20219;-89
2023/06/18 03:04:51;;;;;;;16.60;12.77;;;13.10;87.60;;;;;;4960109;28;20182;-89
2023/06/18 03:07:17;;;;;;;15.50;12.47;;;13.20;87.80;;;;;;4960387;28;20209;-88
2023/06/18 03:09:43;;;;;;;18.07;13.80;;;13.30;88.00;;;;;;4960565;28;20171;-88
2023/06/18 03:12:09;;;;;;;16.90;12.70;;;13.30;88.10;;;;;;4977863;28;20242;-88
2023/06/18 03:14:35;;;;;;;13.50;12.17;;;13.40;88.40;;;;;;4960693;28;20645;-88
2023/06/18 03:17:00;;;;;;;20.70;13.00;;;13.60;88.30;;;;;;4960802;28;20179;-88
2023/06/18 03:19:26;;;;;;;14.30;13.00;;;13.60;87.80;;;;;;4960468;28;20182;-88
2023/06/18 03:21:51;;;;;;;14.30;13.00;;;13.60;87.70;;;;;;4960691;28;20190;-88
2023/06/18 03:24:17;;;;;;;16.77;12.53;;;13.40;87.60;;;;;;4961232;28;20206;-87
2023/06/18 03:26:43;;;;;;;15.07;13.57;;;13.30;87.80;;;;;;4959749;28;20181;-88
2023/06/18 03:29:09;;;;;;;14.53;13.03;;;13.20;88.00;;;;;;4958848;28;20171;-88
2023/06/18 03:31:35;;;;;;;17.43;12.73;;;13.20;88.20;;;;;;4958010;28;20198;-88
2023/06/18 03:34:01;;;;;;;18.47;12.53;;;13.30;88.30;;;;;;4959054;28;20221;-88
2023/06/18 03:36:39;;;;;;;16.60;15.00;;;13.20;88.20;;;;;;4959275;28;20233;-88
2023/06/18 03:39:05;;;;;;;16.60;14.73;;;13.10;89.10;;;;;;4975027;28;20174;-89
2023/06/18 03:41:31;;;;;;;18.67;14.40;;;13.30;89.70;;;;;;4975927;28;20175;-89
2023/06/18 03:43:57;;;;;;;27.43;15.27;;;13.40;89.80;;;;;;4959233;28;20214;-89
2023/06/18 03:46:22;;;;;;;16.27;14.67;;;13.60;89.70;;;;;;4959033;28;20171;-90
2023/06/18 03:48:48;;;;;;;16.30;13.47;;;13.80;89.60;;;;;;4958639;28;20641;-88
2023/06/18 03:51:13;;;;;;;16.43;13.27;;;13.80;89.40;;;;;;4959661;28;20179;-88
2023/06/18 03:53:39;;;;;;;15.27;13.13;;;13.70;89.10;;;;;;4958382;28;20226;-89
2023/06/18 03:56:05;;;;;;;13.13;11.83;;;13.80;89.20;;;;;;4958352;28;20181;-88
2023/06/18 03:58:31;;;;;;;15.93;13.47;;;13.90;89.20;;;;;;4958159;28;20269;-88
2023/06/18 04:00:56;;;;;;;14.70;13.43;;;14.00;89.10;;;;;;4958333;28;20266;-87
2023/06/18 04:03:25;;;;;;;16.97;12.73;;;14.10;89.20;;;;;;4957894;28;20651;-89
2023/06/18 04:05:51;;;;;;;14.47;13.07;;;14.00;89.20;;;;;;4974272;28;20266;-88
2023/06/18 04:08:16;;;;;;;22.27;13.97;;;14.10;89.30;;;;;;4975365;28;20650;-89
2023/06/18 04:10:43;;;;;;;15.70;12.83;;;14.10;89.50;;;;;;4958415;28;20225;-88
2023/06/18 04:13:13;;;;;;;16.33;14.83;;;14.20;89.60;;;;;;4958391;28;20198;-85
2023/06/18 04:15:39;;;;;;;17.67;14.97;;;14.10;89.70;;;;;;4960647;28;20179;-86
2023/06/18 04:18:04;;;;;;;16.20;14.80;;;14.10;89.90;;;;;;4958641;28;20190;-89
2023/06/18 04:20:30;;;;;;;16.83;15.13;;;14.10;90.10;;;;;;4958072;28;20181;-89
2023/06/18 04:22:55;;;;;;;18.00;15.57;;;14.10;90.40;;;;;;4957601;28;20261;-89
2023/06/18 04:25:21;;;;;;;16.83;13.60;;;14.20;90.60;;;;;;4957850;28;20186;-89
2023/06/18 04:27:46;;;;;;;17.30;15.57;;;14.30;90.70;;;;;;4957579;28;20229;-90
2023/06/18 04:30:12;;;;;;;18.30;16.40;;;14.40;90.70;;;;;;4973628;28;20175;-90
2023/06/18 04:32:38;;;;;;;19.97;17.87;;;14.50;90.70;;;;;;4975000;28;20253;-90
2023/06/18 04:35:03;;;;;;;19.37;17.40;;;14.70;90.90;;;;;;4975137;28;20203;-89
2023/06/18 04:37:30;;;;;;;18.07;15.27;;;14.70;91.00;;;;;;4957609;28;20178;-89
2023/06/18 04:39:56;;;;;;;18.67;16.87;;;14.80;91.00;;;;;;4957508;28;20178;-91
2023/06/18 04:42:21;;;;;;;21.53;19.33;;;14.70;90.80;;;;;;4974772;28;20731;-89
2023/06/18 04:44:47;;;;;;;25.08;22.25;;;14.70;90.80;;;;;;4975178;28;20179;-87
2023/06/18 04:47:12;;;;;;;25.88;22.05;;;14.80;91.20;;;;;;4974881;28;20171;-88
2023/06/18 04:49:38;;;;;;;24.50;19.63;;;14.80;91.40;;;;;;4958865;28;20183;-88
2023/06/18 04:52:04;;;;;;;23.87;21.10;;;14.80;91.50;;;;;;4961071;28;20245;-87
2023/06/18 04:54:29;;;;;;;25.23;22.52;;;14.80;91.50;;;;;;4959454;28;20175;-88
2023/06/18 04:56:57;;;;;;;26.48;23.88;;;14.80;91.70;;;;;;4958412;28;20558;-90
2023/06/18 04:59:24;;;;;;;29.17;22.55;;;14.90;92.00;;;;;;4958045;28;20202;-88
2023/06/18 05:01:50;;;;;;;24.52;22.15;;;14.90;92.20;;;;;;4976389;28;20178;-87
2023/06/18 05:04:16;;;;;;;26.17;23.30;;;14.90;92.20;;;;;;4974889;28;20197;-89
2023/06/18 05:06:42;;;;;;;26.63;23.45;;;15.00;92.30;;;;;;4976052;28;20170;-91
2023/06/18 05:09:08;;;;;;;27.20;24.48;;;15.20;92.50;;;;;;4975387;28;20175;-90
2023/06/18 05:11:34;;;;;;;25.90;23.15;;;15.20;92.50;;;;;;4962182;28;20201;-92
2023/06/18 05:14:00;;;;;;;26.30;23.52;;;15.30;92.60;;;;;;4957829;28;20575;-88
2023/06/18 05:16:26;;;;;;;26.50;23.73;;;15.30;92.60;;;;;;4957489;28;20594;-89
2023/06/18 05:18:52;;;;;;;32.35;24.42;;;15.40;92.60;;;;;;4957230;28;20178;-90
2023/06/18 05:21:18;;;;;;;31.92;24.77;;;15.50;92.80;;;;;;4957790;28;20186;-92
2023/06/18 05:23:43;;;;;;;30.42;25.27;;;15.70;92.90;;;;;;4977077;28;20207;-91
2023/06/18 05:36:30;;;;;;;28.33;24.08;;;16.30;93.00;;;;;;5104916;23;20625;-88
2023/06/18 05:38:59;;;;;;;25.95;23.38;;;16.50;92.90;;;;;;4974442;28;20171;-88
2023/06/18 05:41:25;;;;;;;26.98;24.27;;;16.70;93.00;;;;;;4974147;28;20175;-89
2023/06/18 05:43:51;;;;;;;27.88;24.88;;;16.90;92.90;;;;;;4972945;28;20231;-87
2023/06/18 05:46:17;;;;;;;25.75;23.00;;;17.10;92.70;;;;;;4973156;28;20206;-89
2023/06/18 05:48:42;;;;;;;28.38;22.55;;;17.20;92.50;;;;;;4974050;28;20179;-88
2023/06/18 05:51:08;;;;;;;24.02;21.58;;;17.20;92.40;;;;;;4972891;28;20526;-87
2023/06/18 05:53:33;;;;;;;28.23;22.80;;;17.30;92.20;;;;;;4974456;28;20198;-87
2023/06/18 05:55:59;;;;;;;23.08;20.65;;;17.50;92.00;;;;;;4977679;28;20170;-86
2023/06/18 05:58:25;;;;;;;22.50;20.25;;;17.50;91.50;;;;;;4976288;28;20202;-87
2023/06/18 06:00:50;;;;;;;24.10;21.08;;;17.50;91.30;;;;;;4977482;28;20174;-88
2023/06/18 06:03:16;;;;;;;24.67;21.95;;;17.70;91.40;;;;;;4977428;28;20285;-89
2023/06/18 06:05:41;;;;;;;23.90;21.40;;;18.00;91.60;;;;;;4977503;28;20535;-88
2023/06/18 06:08:07;;;;;;;23.83;21.50;;;18.20;91.30;;;;;;4976284;28;20175;-87
2023/06/18 06:10:34;;;;;;;23.75;21.45;;;18.30;91.20;;;;;;4977236;28;20183;-87
2023/06/18 06:13:00;;;;;;;23.60;21.40;;;18.50;91.20;;;;;;4976493;28;20224;-87
2023/06/18 06:15:25;;;;;;;23.88;21.45;;;18.30;90.30;;;;;;4977280;28;20700;-86
2023/06/18 06:17:51;;;;;;;24.02;21.33;;;18.40;90.10;;;;;;4976128;28;20191;-87
2023/06/18 06:20:16;;;;;;;29.20;23.33;;;18.40;89.90;;;;;;4976077;28;20233;-87
2023/06/18 06:22:42;;;;;;;24.50;22.10;;;18.70;89.80;;;;;;4975999;28;20210;-86
2023/06/18 06:25:08;;;;;;;21.77;19.75;;;18.80;89.90;;;;;;4976010;28;20179;-86
2023/06/18 06:27:33;;;;;;;23.30;21.15;;;19.00;89.40;;;;;;4977110;28;20178;-86
2023/06/18 06:30:01;;;;;;;21.05;19.15;;;19.20;88.90;;;;;;4977042;28;20230;-87
2023/06/18 06:32:29;;;;;;;21.10;19.20;;;19.30;87.70;;;;;;4975864;28;20205;-86
2023/06/18 06:34:55;;;;;;;19.90;18.08;;;19.60;87.40;;;;;;4977492;28;20657;-87
2023/06/18 06:37:21;;;;;;;20.88;18.77;;;19.70;87.00;;;;;;4977200;28;20193;-87
2023/06/18 06:39:46;;;;;;;21.52;19.42;;;19.80;86.80;;;;;;4975738;28;20177;-87
2023/06/18 06:42:12;;;;;;;22.88;20.73;;;19.90;86.20;;;;;;4975632;28;20226;-87
2023/06/18 06:44:38;;;;;;;21.15;19.25;;;20.10;85.90;;;;;;4975656;28;20181;-87
2023/06/18 06:47:03;;;;;;;22.20;20.02;;;20.20;85.50;;;;;;4975569;28;20265;-87
2023/06/18 06:49:29;;;;;;;20.42;18.55;;;20.20;84.00;;;;;;4976809;28;20634;-87
2023/06/18 06:51:55;;;;;;;22.77;20.67;;;20.20;82.70;;;;;;4976764;28;20264;-87
2023/06/18 06:54:21;;;;;;;19.45;17.73;;;20.10;82.60;;;;;;4976714;28;20195;-87
2023/06/18 06:56:47;;;;;;;20.55;18.75;;;20.10;83.20;;;;;;4976712;28;20258;-87
2023/06/18 06:59:13;;;;;;;20.48;18.60;;;19.90;82.60;;;;;;4976796;28;20266;-87
2023/06/18 07:01:39;;;;;;;19.65;17.63;;;20.10;83.80;;;;;;4975507;28;20166;-87
2023/06/18 07:04:05;;;;;;;19.30;17.52;;;20.30;84.30;;;;;;4976122;28;20202;-87
2023/06/18 07:06:30;;;;;;;20.83;18.63;;;20.40;82.80;;;;;;4975725;28;20198;-87
2023/06/18 07:08:57;;;;;;;18.52;16.40;;;20.50;82.50;;;;;;4975251;28;20269;-86
2023/06/18 07:11:23;;;;;;;17.92;16.45;;;20.70;81.50;;;;;;4976718;28;20171;-87
2023/06/18 07:13:48;;;;;;;19.77;18.13;;;20.80;81.00;;;;;;4976332;28;20567;-87
2023/06/18 07:16:14;;;;;;;19.45;17.65;;;20.60;79.50;;;;;;4975545;28;20200;-87
2023/06/18 07:18:39;;;;;;;15.55;14.25;;;20.30;78.40;;;;;;4975107;28;20225;-87
2023/06/18 07:21:05;;;;;;;18.25;16.70;;;20.40;78.60;;;;;;4975050;28;20185;-87
2023/06/18 07:23:31;;;;;;;16.67;15.07;;;20.70;76.40;;;;;;4974950;28;20219;-87
2023/06/18 07:25:56;;;;;;;17.45;15.75;;;20.70;77.10;;;;;;4974933;28;20185;-87
2023/06/18 07:28:22;;;;;;;17.38;15.82;;;20.60;77.20;;;;;;4976430;28;20181;-87
2023/06/18 07:30:47;;;;;;;16.10;14.70;;;20.40;76.90;;;;;;4974867;28;20182;-87
2023/06/18 07:33:13;;;;;;;16.55;15.05;;;20.60;78.20;;;;;;4974723;28;20199;-87
2023/06/18 07:35:38;;;;;;;15.15;13.93;;;20.80;78.20;;;;;;4975923;28;20198;-86
2023/06/18 07:38:04;;;;;;;16.30;15.00;;;20.90;76.30;;;;;;4974728;28;20178;-87
2023/06/18 07:40:33;;;;;;;16.10;14.90;;;20.80;74.80;;;;;;4974725;28;20646;-87
2023/06/18 07:42:59;;;;;;;15.35;14.07;;;20.90;76.10;;;;;;4974553;28;20250;-87
2023/06/18 07:45:24;;;;;;;14.82;13.40;;;21.00;75.90;;;;;;4974657;28;20185;-87
2023/06/18 07:47:50;;;;;;;14.98;13.68;;;21.10;75.40;;;;;;4976026;28;20174;-87
2023/06/18 07:50:16;;;;;;;16.33;14.57;;;21.20;73.90;;;;;;4974405;28;20190;-87
2023/06/18 07:52:42;;;;;;;15.20;13.82;;;21.20;73.20;;;;;;4975614;28;20198;-87
2023/06/18 07:55:08;;;;;;;16.25;14.77;;;21.20;73.00;;;;;;4974270;28;20183;-87
2023/06/18 07:57:33;;;;;;;16.23;14.93;;;21.30;72.40;;;;;;4975610;28;20218;-87
2023/06/18 07:59:59;;;;;;;15.77;14.18;;;21.30;71.90;;;;;;4974300;28;20182;-87
2023/06/18 08:02:24;;;;;;;18.15;16.48;;;21.40;72.20;;;;;;4974074;28;20234;-87
2023/06/18 08:04:50;;;;;;;16.23;14.88;;;21.30;70.30;;;;;;4974207;28;20190;-87
2023/06/18 08:07:15;;;;;;;18.15;16.75;;;21.40;69.50;;;;;;4974263;28;20598;-87
2023/06/18 08:09:41;;;;;;;17.13;15.85;;;21.50;70.30;;;;;;4974196;28;20237;-87
2023/06/18 08:12:07;;;;;;;17.60;16.15;;;21.50;70.70;;;;;;4975268;28;20621;-87
2023/06/18 08:14:33;;;;;;;17.85;16.45;;;21.80;71.10;;;;;;4973996;28;20649;-87
2023/06/18 08:16:58;;;;;;;18.23;16.73;;;21.80;70.20;;;;;;4974869;28;20183;-87
2023/06/18 08:19:24;;;;;;;18.35;16.85;;;22.00;70.60;;;;;;4975206;28;20175;-87
2023/06/18 08:21:49;;;;;;;17.30;15.90;;;22.00;69.20;;;;;;4975010;28;20174;-87
2023/06/18 08:24:15;;;;;;;17.50;15.80;;;22.00;68.00;;;;;;4973794;28;20203;-87
2023/06/18 08:26:41;;;;;;;18.10;16.42;;;22.00;68.30;;;;;;4974695;28;20189;-87
2023/06/18 08:29:06;;;;;;;17.88;16.30;;;21.90;68.60;;;;;;4973693;28;20233;-87
2023/06/18 08:31:32;;;;;;;18.42;17.02;;;22.10;69.00;;;;;;4973622;28;20178;-87
2023/06/18 08:33:57;;;;;;;20.42;18.70;;;22.30;68.10;;;;;;4973685;28;20676;-87
2023/06/18 08:36:23;;;;;;;19.85;18.00;;;22.10;66.80;;;;;;4974877;28;20241;-87
2023/06/18 08:38:49;;;;;;;19.80;18.00;;;22.30;67.00;;;;;;4973527;28;20182;-87
2023/06/18 08:41:15;;;;;;;19.05;17.65;;;22.60;65.50;;;;;;4973619;28;20178;-87
2023/06/18 08:43:41;;;;;;;21.33;19.25;;;22.80;66.10;;;;;;4973319;28;20744;-87
2023/06/18 08:46:14;;;;;;;19.90;18.40;;;22.70;64.10;;;;;;4974909;28;20179;-87
2023/06/18 08:48:46;;;;;;;19.50;17.80;;;22.60;64.30;;;;;;4973476;28;20203;-86
2023/06/18 08:51:12;;;;;;;19.60;18.02;;;22.80;64.80;;;;;;4974606;28;20209;-87
2023/06/18 08:54:00;;;;;;;20.17;18.58;;;22.90;63.90;;;;;;4973288;28;20226;-86
2023/06/18 08:56:28;;;;;;;19.60;18.10;;;23.10;64.20;;;;;;4960748;28;20187;-87
2023/06/18 08:58:57;;;;;;;20.48;18.75;;;23.30;63.40;;;;;;4974511;28;20179;-87
2023/06/18 09:01:24;;;;;;;17.40;16.20;;;23.70;64.90;;;;;;4973303;28;20270;-87
2023/06/18 09:03:51;;;;;;;17.92;16.52;;;23.70;62.20;;;;;;4973157;28;20768;-87
2023/06/18 09:06:17;;;;;;;19.38;17.48;;;23.70;60.40;;;;;;4973134;28;20217;-87
2023/06/18 09:08:43;;;;;;;20.73;19.20;;;23.80;59.00;;;;;;4973320;28;20229;-87
2023/06/18 09:11:09;;;;;;;20.20;18.80;;;23.70;59.30;;;;;;4973384;28;20208;-87
2023/06/18 09:13:40;;;;;;;20.27;18.77;;;23.50;59.50;;;;;;4973179;28;20254;-86
2023/06/18 09:16:06;;;;;;;19.13;17.80;;;23.80;61.20;;;;;;4973086;28;20182;-86
2023/06/18 09:18:31;;;;;;;20.05;18.55;;;24.00;59.60;;;;;;4973025;28;20179;-87
2023/06/18 09:20:57;;;;;;;20.67;19.08;;;23.70;60.00;;;;;;4974331;28;20229;-87
2023/06/18 09:23:23;;;;;;;21.15;19.40;;;23.70;61.40;;;;;;4972857;28;20309;-87
2023/06/18 09:25:53;;;;;;;20.33;18.70;;;23.70;60.10;;;;;;4974523;28;20634;-87
2023/06/18 09:28:23;;;;;;;20.60;19.00;;;23.60;58.60;;;;;;4975499;28;20641;-87
2023/06/18 09:31:01;;;;;;;21.05;19.00;;;23.90;61.80;;;;;;4978153;28;20185;-87
2023/06/18 09:33:31;;;;;;;19.63;18.23;;;24.20;59.40;;;;;;4976912;28;20201;-87
2023/06/18 09:36:08;;;;;;;17.92;16.42;;;24.40;60.50;;;;;;4977012;28;20194;-87
2023/06/18 09:38:38;;;;;;;18.83;17.42;;;24.30;56.50;;;;;;4978148;28;20306;-87
2023/06/18 09:41:16;;;;;;;17.02;15.77;;;24.30;56.00;;;;;;4976828;28;20599;-87
2023/06/18 09:43:46;;;;;;;18.17;16.77;;;24.60;55.30;;;;;;4977214;28;20222;-87
2023/06/18 09:46:12;;;;;;;18.67;17.08;;;24.20;54.10;;;;;;4976749;28;20190;-87
2023/06/18 09:48:41;;;;;;;17.75;16.33;;;24.40;54.90;;;;;;4976648;28;20183;-87
2023/06/18 09:51:07;;;;;;;18.20;16.95;;;24.60;55.70;;;;;;4977861;28;20234;-87
2023/06/18 09:53:33;;;;;;;18.42;16.45;;;24.90;55.90;;;;;;4976556;28;20203;-87
2023/06/18 09:56:08;;;;;;;17.60;16.25;;;25.20;56.40;;;;;;4977792;28;20181;-87
2023/06/18 09:58:45;;;;;;;16.52;15.32;;;25.20;54.70;;;;;;4977657;28;20586;-87
2023/06/18 10:01:11;;;;;;;17.50;16.10;;;25.30;53.20;;;;;;4978037;28;20262;-87
2023/06/18 10:03:37;;;;;;;16.45;15.20;;;25.70;51.50;;;;;;4976338;28;20298;-87
2023/06/18 10:06:18;;;;;;;16.13;14.63;;;25.80;52.70;;;;;;4976425;28;20179;-87
2023/06/18 10:08:46;;;;;;;17.20;15.98;;;25.90;51.00;;;;;;4976444;28;20683;-87
2023/06/18 10:11:13;;;;;;;16.98;15.68;;;25.80;51.20;;;;;;4977564;28;20178;-87
2023/06/18 10:13:57;;;;;;;16.55;15.35;;;25.70;54.20;;;;;;4977451;28;20223;-87
2023/06/18 10:16:26;;;;;;;16.35;14.93;;;25.80;51.70;;;;;;4976303;28;20245;-87
2023/06/18 10:19:01;;;;;;;16.55;15.25;;;26.00;53.70;;;;;;4977357;28;20186;-87
2023/06/18 10:21:28;;;;;;;16.23;15.02;;;26.00;53.30;;;;;;4977669;28;20604;-88
2023/06/18 10:23:58;;;;;;;15.95;14.85;;;26.00;54.40;;;;;;4977239;28;20199;-87
2023/06/18 10:26:24;;;;;;;16.85;15.55;;;26.30;54.80;;;;;;4976259;28;20187;-88
2023/06/18 10:28:51;;;;;;;16.13;15.00;;;26.30;52.40;;;;;;4977454;28;20167;-87
2023/06/18 10:31:19;;;;;;;16.15;15.07;;;26.00;53.20;;;;;;4976170;28;20178;-88
2023/06/18 10:33:46;;;;;;;16.65;15.45;;;26.20;52.60;;;;;;4975974;28;20201;-88
2023/06/18 10:36:13;;;;;;;15.95;14.82;;;25.80;52.50;;;;;;4976105;28;20206;-88
2023/06/18 10:38:39;;;;;;;17.15;15.80;;;26.20;51.80;;;;;;4976174;28;20576;-88
2023/06/18 10:41:11;;;;;;;16.92;15.63;;;26.00;50.00;;;;;;4977171;28;20174;-88
2023/06/18 10:43:41;;;;;;;16.50;15.45;;;26.00;50.40;;;;;;4976041;28;20323;-88
2023/06/18 10:46:16;;;;;;;15.98;14.98;;;25.80;49.10;;;;;;4975978;28;20194;-89
2023/06/18 10:49:17;;;;;;;16.75;15.45;;;25.80;49.80;;;;;;4975886;28;20652;-88
2023/06/18 10:51:56;;;;;;;16.30;15.20;;;26.10;50.40;;;;;;4977070;28;20247;-88
2023/06/18 10:54:33;;;;;;;16.15;15.13;;;26.50;50.10;;;;;;4976159;28;20293;-89
2023/06/18 10:56:59;;;;;;;17.02;15.63;;;26.20;48.30;;;;;;4975824;28;20637;-88
2023/06/18 10:59:45;;;;;;;16.30;15.20;;;25.90;48.80;;;;;;4975982;28;20175;-88
2023/06/18 11:02:12;;;;;;;15.90;14.80;;;26.10;49.80;;;;;;4975492;28;20258;-88
2023/06/18 11:04:38;;;;;;;16.33;15.20;;;26.40;47.60;;;;;;4975664;28;20175;-88
2023/06/18 11:07:15;;;;;;;16.30;15.10;;;26.40;48.30;;;;;;4975480;28;20181;-88
2023/06/18 11:10:07;;;;;;;15.77;14.65;;;27.00;46.60;;;;;;4975604;28;20186;-88
2023/06/18 11:12:37;;;;;;;16.45;15.02;;;27.20;43.60;;;;;;4971786;28;20214;-87
2023/06/18 11:15:18;;;;;;;15.65;14.55;;;27.60;43.50;;;;;;4975404;28;20233;-88
2023/06/18 11:17:48;;;;;;;16.27;14.95;;;27.20;44.10;;;;;;4976453;28;20194;-88
2023/06/18 11:20:14;;;;;;;15.25;14.25;;;27.30;45.40;;;;;;4975092;28;20274;-88
2023/06/18 11:22:41;;;;;;;15.77;14.57;;;27.00;45.10;;;;;;4975098;28;20297;-87
2023/06/18 11:25:08;;;;;;;16.15;14.90;;;27.60;46.60;;;;;;4975073;28;20182;-88
2023/06/18 11:27:34;;;;;;;15.32;14.27;;;28.00;44.40;;;;;;4975089;28;20178;-88
2023/06/18 11:30:00;;;;;;;15.30;14.13;;;27.70;43.10;;;;;;4975623;28;20637;-88
2023/06/18 11:32:26;;;;;;;15.18;14.18;;;27.40;41.80;;;;;;4974838;28;20202;-88
2023/06/18 11:34:54;;;;;;;15.95;14.82;;;27.70;40.70;;;;;;4975950;28;20182;-88
2023/06/18 11:37:20;;;;;;;15.85;14.77;;;27.70;40.30;;;;;;4974749;28;20190;-87
2023/06/18 11:39:47;;;;;;;15.52;14.52;;;28.00;39.60;;;;;;4975032;28;20179;-88
2023/06/18 11:42:20;;;;;;;15.90;14.63;;;28.30;37.60;;;;;;4975073;28;20175;-87
2023/06/18 11:44:47;;;;;;;16.05;14.85;;;28.30;41.60;;;;;;4975980;28;20257;-87
2023/06/18 11:47:13;;;;;;;15.63;14.57;;;28.30;41.90;;;;;;4974766;28;20174;-88
2023/06/18 11:49:45;;;;;;;15.70;14.40;;;28.20;42.00;;;;;;4974657;28;20198;-88
2023/06/18 11:52:13;;;;;;;15.75;14.50;;;28.70;39.40;;;;;;4974639;28;20181;-87
2023/06/18 11:54:40;;;;;;;16.15;15.15;;;29.00;35.20;;;;;;4974464;28;20182;-86
2023/06/18 11:57:17;;;;;;;16.35;15.27;;;28.80;38.80;;;;;;4976193;28;20177;-87
2023/06/18 11:59:44;;;;;;;15.57;14.57;;;28.30;37.90;;;;;;4975632;28;20163;-87
2023/06/18 12:02:17;;;;;;;16.33;15.13;;;28.20;39.60;;;;;;4974267;28;20261;-87
2023/06/18 12:04:44;;;;;;;15.23;14.32;;;28.30;39.00;;;;;;4974388;28;20578;-87
2023/06/18 12:07:21;;;;;;;16.35;15.20;;;28.40;40.60;;;;;;4975442;28;20177;-87
2023/06/18 12:09:48;;;;;;;16.20;15.10;;;28.20;38.80;;;;;;4975638;28;20174;-87
2023/06/18 12:12:19;;;;;;;15.45;14.55;;;28.20;39.90;;;;;;4975166;28;20210;-86
2023/06/18 12:14:58;;;;;;;15.98;14.68;;;28.50;40.70;;;;;;4974161;28;20175;-87
2023/06/18 12:17:38;;;;;;;15.70;14.70;;;28.70;41.10;;;;;;4974178;28;20181;-87
2023/06/18 12:20:10;;;;;;;15.90;14.77;;;29.00;39.20;;;;;;4975089;28;20703;-88
2023/06/18 12:22:37;;;;;;;16.55;15.05;;;28.80;36.30;;;;;;4973933;28;20218;-87
2023/06/18 12:25:04;;;;;;;16.83;15.40;;;28.50;37.30;;;;;;4973937;28;20645;-87
2023/06/18 12:27:30;;;;;;;16.45;15.45;;;28.50;39.50;;;;;;4975099;28;20692;-87
2023/06/18 12:30:00;;;;;;;16.02;14.82;;;28.50;38.80;;;;;;4974591;28;20213;-87
2023/06/18 12:32:25;;;;;;;16.17;15.07;;;28.60;38.80;;;;;;4973875;28;20209;-87
2023/06/18 12:34:51;;;;;;;16.33;15.27;;;28.70;40.30;;;;;;4973671;28;20174;-87
2023/06/18 12:37:16;;;;;;;17.15;16.02;;;28.90;37.50;;;;;;4973850;28;20183;-87
2023/06/18 12:40:18;;;;;;;16.10;14.98;;;28.60;37.10;;;;;;4973675;28;20645;-88
2023/06/18 12:42:46;;;;;;;16.73;15.63;;;28.70;37.70;;;;;;4974763;28;20285;-87
2023/06/18 12:45:12;;;;;;;16.73;15.52;;;28.90;38.00;;;;;;4973589;28;20213;-87
2023/06/18 12:47:43;;;;;;;18.73;15.70;;;28.80;36.50;;;;;;4974991;28;20258;-87